KPIT/PIT METAR and TAF weather

Enter ICAO airport designator
Station Type Date Time Source
KPIT METAR 2024/04/15 07:51 UTC NOAA

KPIT 150751Z 00000KT 10SM BKN055 OVC080 16/12 A2981 RMK AO2 SLP094 T01560122 PNO VISNO SE $


Station Type Date Time Source
KPIT Decoded METAR 2024/04/15 07:51 UTC NOAA

GREATER PITTSBURGH INTERNATIONAL , PA, United States (KPIT) 40-29N 80-14W 357M
Apr 15, 2024 - 03:51 AM EDT / 2024.04.15 0751 UTC
Wind: Calm:0
Visibility: 10 mile(s):0
Sky conditions: overcast
Temperature: 60.1 F (15.6 C)
Dew Point: 54.0 F (12.2 C)
Relative Humidity: 80%
Pressure (altimeter): 29.81 in. Hg (1009 hPa)
ob: KPIT 150751Z 00000KT 10SM BKN055 OVC080 16/12 A2981 RMK AO2 SLP094 T01560122 PNO VISNO SE
cycle: 8

Station Type Date Time Source
KPIT TAF 2024/04/15 06:59 UTC NOAA